Time;durP1;ratioP1;P1;durP2;ratioP2;P2;SDS_P1;SDS_P2;PMS_P1;PMS_P2;Temp;Humidity;BMP_temperature;BMP_pressure;BME280_temperature;BME280_humidity;BME280_pressure;Samples;Min_cycle;Max_cycle;Signal;HPM_P1;HPM_P2
2019/09/18 00:01:45;;;;;;;10.1;5.4;;;;;;;12.82;72.35352;965.5259;;;;
2019/09/18 00:04:03;;;;;;;7.8;5.3;;;;;;;12.89;72.04004;965.5199;;;;
2019/09/18 00:06:29;;;;;;;8.5;5.6;;;;;;;12.86;72.08008;965.5349;;;;
2019/09/18 00:08:54;;;;;;;9.1;5.7;;;;;;;12.77;72.40137;965.5076;;;;
2019/09/18 00:11:19;;;;;;;12.4;5.5;;;;;;;12.81;72.1543;965.4736;;;;
2019/09/18 00:13:44;;;;;;;8.9;5.6;;;;;;;12.72;72.34863;965.5192;;;;
2019/09/18 00:16:10;;;;;;;10.2;5.4;;;;;;;12.87;71.75977;965.4764;;;;
2019/09/18 00:18:35;;;;;;;10.1;5.6;;;;;;;12.68;72.06348;965.4412;;;;
2019/09/18 00:21:00;;;;;;;10.9;5.1;;;;;;;12.74;71.76074;965.5037;;;;
2019/09/18 00:23:25;;;;;;;9.8;5.5;;;;;;;12.75;71.90234;965.5363;;;;
2019/09/18 00:25:50;;;;;;;8.3;5.1;;;;;;;12.69;72.05371;965.5545;;;;
2019/09/18 00:28:16;;;;;;;9.5;5;;;;;;;12.68;72.13281;965.6158;;;;
2019/09/18 00:30:41;;;;;;;9.5;5.6;;;;;;;12.66;72.98633;965.6047;;;;
2019/09/18 00:33:06;;;;;;;10.1;5.3;;;;;;;12.68;72.31641;965.5901;;;;
2019/09/18 00:35:31;;;;;;;10.8;5.6;;;;;;;12.63;72.4248;965.5917;;;;
2019/09/18 00:37:56;;;;;;;8.4;5;;;;;;;12.54;73.60059;965.6234;;;;
2019/09/18 00:40:22;;;;;;;7.8;5;;;;;;;12.61;73.48535;965.6206;;;;
2019/09/18 00:42:47;;;;;;;9.6;5;;;;;;;12.56;73.39551;965.6603;;;;
2019/09/18 00:45:12;;;;;;;8.3;4.7;;;;;;;12.63;72.53027;965.6294;;;;
2019/09/18 00:47:37;;;;;;;7.6;5;;;;;;;12.66;72.70508;965.5994;;;;
2019/09/18 00:50:02;;;;;;;10.4;4.9;;;;;;;12.72;71.76855;965.623;;;;
2019/09/18 00:52:28;;;;;;;9.7;4.6;;;;;;;12.7;71.68555;965.5792;;;;
2019/09/18 00:54:53;;;;;;;8;4.8;;;;;;;12.57;72.47266;965.6019;;;;
2019/09/18 00:57:18;;;;;;;8.1;4.6;;;;;;;12.61;72.15625;965.6649;;;;
2019/09/18 00:59:43;;;;;;;9.2;4.7;;;;;;;12.63;71.95117;965.6629;;;;
2019/09/18 01:02:09;;;;;;;7;4.4;;;;;;;12.65;72.02344;965.7261;;;;
2019/09/18 01:04:34;;;;;;;8.7;4.7;;;;;;;12.59;72.64844;965.822;;;;
2019/09/18 01:06:59;;;;;;;8.1;5;;;;;;;12.43;73.05078;965.8253;;;;
2019/09/18 01:09:25;;;;;;;8.7;5;;;;;;;12.52;72.42969;965.8208;;;;
2019/09/18 01:11:50;;;;;;;10.8;5.1;;;;;;;12.53;72.63965;965.8175;;;;
2019/09/18 01:14:15;;;;;;;7.3;4.7;;;;;;;12.5;72.80859;965.8173;;;;
2019/09/18 01:16:40;;;;;;;9.4;5;;;;;;;12.37;73.82617;965.8003;;;;
2019/09/18 01:19:05;;;;;;;8.1;5;;;;;;;12.37;74.50781;965.8378;;;;
2019/09/18 01:21:30;;;;;;;8.4;5.2;;;;;;;12.22;74.8418;965.9221;;;;
2019/09/18 01:23:56;;;;;;;10.9;5.4;;;;;;;12.27;73.95801;965.9158;;;;
2019/09/18 01:26:35;;;;;;;6.7;4.8;;;;;;;12.37;73.94141;965.9302;;;;
2019/09/18 01:28:46;;;;;;;7.5;4.8;;;;;;;12.35;73.75391;965.9698;;;;
2019/09/18 01:31:11;;;;;;;9;5.3;;;;;;;12.27;73.49609;966.0187;;;;
2019/09/18 01:33:36;;;;;;;8.8;4.7;;;;;;;12.07;73.39453;966.0287;;;;
2019/09/18 01:36:02;;;;;;;9.7;4.8;;;;;;;12.01;73.9502;966.0756;;;;
2019/09/18 01:38:27;;;;;;;8.8;4.7;;;;;;;12.02;73.61719;966.1303;;;;
2019/09/18 01:40:52;;;;;;;8;4.5;;;;;;;12.08;73.20996;966.0869;;;;
2019/09/18 01:43:17;;;;;;;8.6;4.6;;;;;;;12.1;72.76465;966.108;;;;
2019/09/18 01:45:43;;;;;;;9.4;4.5;;;;;;;12.07;72.50586;966.0712;;;;
2019/09/18 01:48:08;;;;;;;6.9;4.1;;;;;;;12.18;72.5;966.1679;;;;
2019/09/18 01:50:33;;;;;;;6.6;4.1;;;;;;;12.08;72.43652;966.1383;;;;
2019/09/18 01:52:58;;;;;;;7.9;3.8;;;;;;;12.07;72.85254;966.1194;;;;
2019/09/18 01:55:23;;;;;;;7.7;4.3;;;;;;;12.18;72.4082;966.1802;;;;
2019/09/18 01:57:48;;;;;;;10.7;4.5;;;;;;;12.05;72.53613;966.1401;;;;
2019/09/18 02:00:14;;;;;;;8.8;4.2;;;;;;;12.17;71.75977;966.1429;;;;
2019/09/18 02:02:39;;;;;;;7.5;4.1;;;;;;;12.1;72.19824;966.1006;;;;
2019/09/18 02:05:05;;;;;;;8;4.6;;;;;;;12.07;71.84766;966.139;;;;
2019/09/18 02:07:31;;;;;;;9.4;4.3;;;;;;;12.12;71.87793;966.1885;;;;
2019/09/18 02:09:56;;;;;;;10.6;4.4;;;;;;;12.07;72.02051;966.1832;;;;
2019/09/18 02:12:21;;;;;;;9;4.4;;;;;;;11.74;72.77148;966.2082;;;;
2019/09/18 02:14:46;;;;;;;8.6;4.5;;;;;;;11.85;72.61816;966.2473;;;;
2019/09/18 02:17:11;;;;;;;7.6;4.3;;;;;;;11.93;72.37793;966.2278;;;;
2019/09/18 02:19:37;;;;;;;9.1;4.5;;;;;;;11.83;72.92676;966.2537;;;;
2019/09/18 02:22:02;;;;;;;8.5;4.7;;;;;;;12.08;71.97461;966.2144;;;;
2019/09/18 02:24:27;;;;;;;8.8;4.5;;;;;;;12.06;71.78613;966.2263;;;;
2019/09/18 02:26:52;;;;;;;8.5;4.1;;;;;;;12.05;71.85449;966.279;;;;
2019/09/18 02:29:17;;;;;;;9.2;4.9;;;;;;;11.99;72.26074;966.3033;;;;
2019/09/18 02:31:43;;;;;;;10.3;4.7;;;;;;;11.7;73.60938;966.3658;;;;
2019/09/18 02:34:08;;;;;;;8.3;4.6;;;;;;;11.65;73.93555;966.3406;;;;
2019/09/18 02:36:34;;;;;;;10.1;4.9;;;;;;;11.75;73.42285;966.3211;;;;
2019/09/18 02:38:59;;;;;;;11.8;5.4;;;;;;;11.66;73.79688;966.3293;;;;
2019/09/18 02:41:24;;;;;;;9.4;4.5;;;;;;;11.68;73.84766;966.3716;;;;
2019/09/18 02:43:50;;;;;;;7.7;4.5;;;;;;;11.75;73.41113;966.3832;;;;
2019/09/18 02:46:16;;;;;;;8.5;4.7;;;;;;;11.82;72.90039;966.4847;;;;
2019/09/18 02:48:41;;;;;;;12.5;5.1;;;;;;;11.66;73.77539;966.4127;;;;
2019/09/18 02:51:07;;;;;;;10.9;5.2;;;;;;;11.57;74.72852;966.4201;;;;
2019/09/18 02:53:32;;;;;;;11.4;5.3;;;;;;;11.57;74.39453;966.4217;;;;
2019/09/18 02:55:57;;;;;;;13.1;5.8;;;;;;;11.26;75.47168;966.3923;;;;
2019/09/18 02:58:22;;;;;;;12.8;7.7;;;;;;;11.3;75.53613;966.4089;;;;
2019/09/18 03:00:47;;;;;;;12.2;6.6;;;;;;;11.4;75.63379;966.3987;;;;
2019/09/18 03:03:12;;;;;;;11.9;6.2;;;;;;;11.47;74.67773;966.421;;;;
2019/09/18 03:05:38;;;;;;;13.9;6.4;;;;;;;11.4;75.71289;966.4403;;;;
2019/09/18 03:08:03;;;;;;;11.3;6;;;;;;;11.47;75.31055;966.4632;;;;
2019/09/18 03:10:29;;;;;;;10.2;6;;;;;;;11.53;75.20605;966.4804;;;;
2019/09/18 03:12:54;;;;;;;9.6;5.2;;;;;;;11.63;74.66895;966.4503;;;;
2019/09/18 03:15:20;;;;;;;10.4;5.4;;;;;;;11.69;74.81836;966.4274;;;;
2019/09/18 03:17:45;;;;;;;9;4.8;;;;;;;11.66;74.07324;966.469;;;;
2019/09/18 03:20:11;;;;;;;8.7;5;;;;;;;11.52;75.66504;966.5234;;;;
2019/09/18 03:22:37;;;;;;;12.5;5.1;;;;;;;11.51;75.44336;966.572;;;;
2019/09/18 03:25:03;;;;;;;10.6;4.7;;;;;;;11.28;75.72656;966.5457;;;;
2019/09/18 03:27:28;;;;;;;10.9;5.1;;;;;;;11.31;76.06738;966.5309;;;;
2019/09/18 03:29:53;;;;;;;8.3;4.5;;;;;;;11.31;76.59766;966.5896;;;;
2019/09/18 03:32:18;;;;;;;9.1;4.8;;;;;;;11.22;75.76367;966.575;;;;
2019/09/18 03:34:43;;;;;;;9;4.7;;;;;;;11.18;75.44629;966.6454;;;;
2019/09/18 03:37:08;;;;;;;10.2;5.2;;;;;;;11.19;75.93066;966.6091;;;;
2019/09/18 03:39:34;;;;;;;11.1;4.8;;;;;;;11.2;75.56348;966.6125;;;;
2019/09/18 03:41:59;;;;;;;9.5;4.7;;;;;;;11;76.49805;966.646;;;;
2019/09/18 03:44:24;;;;;;;7.1;4.4;;;;;;;11.08;76.10742;966.5922;;;;
2019/09/18 03:46:50;;;;;;;7.6;4.5;;;;;;;11.04;75.86914;966.6326;;;;
2019/09/18 03:49:15;;;;;;;9.2;4.2;;;;;;;11.15;74.74902;966.6584;;;;
2019/09/18 03:51:40;;;;;;;10.7;4.3;;;;;;;11.19;73.77539;966.7029;;;;
2019/09/18 03:54:06;;;;;;;7.3;3.8;;;;;;;11.25;73.95996;966.69;;;;
2019/09/18 03:56:31;;;;;;;10.5;4.6;;;;;;;10.97;75.07617;966.6583;;;;
2019/09/18 03:58:56;;;;;;;8.2;4.3;;;;;;;11.02;74.25488;966.6769;;;;
2019/09/18 04:02:27;;;;;;;7.2;3.6;;;;;;;11.11;72.91992;966.7178;;;;
2019/09/18 04:04:52;;;;;;;7.9;3.9;;;;;;;10.96;73.875;966.7951;;;;
2019/09/18 04:07:17;;;;;;;9.3;3.7;;;;;;;11.1;72.68848;966.7926;;;;
2019/09/18 04:09:42;;;;;;;7.7;3.5;;;;;;;11.17;72.28418;966.7724;;;;
2019/09/18 04:12:08;;;;;;;8.6;4;;;;;;;10.93;73.39648;966.7745;;;;
2019/09/18 04:14:33;;;;;;;8.3;3.7;;;;;;;10.97;72.82813;966.7535;;;;
2019/09/18 04:16:58;;;;;;;10;4.1;;;;;;;11;73.12109;966.7855;;;;
2019/09/18 04:19:23;;;;;;;9.1;3.9;;;;;;;10.86;73.44238;966.7902;;;;
2019/09/18 04:21:48;;;;;;;10.2;4;;;;;;;10.68;74.40137;966.8442;;;;
2019/09/18 04:24:13;;;;;;;10.5;3.9;;;;;;;10.66;73.30469;966.8635;;;;
2019/09/18 04:26:38;;;;;;;8.6;3.8;;;;;;;10.77;72.67871;966.9697;;;;
2019/09/18 04:29:03;;;;;;;9;3.6;;;;;;;10.77;72.44824;966.9448;;;;
2019/09/18 04:31:28;;;;;;;9.3;3.6;;;;;;;10.75;72.30664;966.9462;;;;
2019/09/18 04:33:53;;;;;;;9.6;3.6;;;;;;;10.68;71.89355;966.9792;;;;
2019/09/18 04:36:19;;;;;;;7;3.7;;;;;;;10.45;73.35059;966.9842;;;;
2019/09/18 04:38:44;;;;;;;8.2;3.4;;;;;;;10.55;71.96191;967.0009;;;;
2019/09/18 04:41:09;;;;;;;9.5;3.6;;;;;;;10.51;72.95898;967.0212;;;;
2019/09/18 04:43:34;;;;;;;8.6;3.4;;;;;;;10.61;72.05469;967.0542;;;;
2019/09/18 04:45:59;;;;;;;7.9;3.5;;;;;;;10.49;73.10547;967.0319;;;;
2019/09/18 04:48:24;;;;;;;8.8;3.5;;;;;;;10.41;72.96387;967.0735;;;;
2019/09/18 04:50:49;;;;;;;8;3.5;;;;;;;10.4;72.79102;967.0371;;;;
2019/09/18 04:53:14;;;;;;;7.4;3.2;;;;;;;10.3;73.38281;967.0283;;;;
2019/09/18 04:55:39;;;;;;;8.1;3.1;;;;;;;10.26;73.44336;967.0557;;;;
2019/09/18 04:58:04;;;;;;;8.2;3.2;;;;;;;10.27;72.81445;967.0722;;;;
2019/09/18 05:02:03;;;;;;;9.5;3.2;;;;;;;10.24;73.90234;967.0905;;;;
2019/09/18 05:04:28;;;;;;;7.8;2.9;;;;;;;10.21;73.01074;967.1497;;;;
2019/09/18 05:06:53;;;;;;;8;3.1;;;;;;;10.11;73.92676;967.1197;;;;
2019/09/18 05:09:18;;;;;;;9.8;3;;;;;;;10.09;73.55469;967.0985;;;;
2019/09/18 05:11:43;;;;;;;6.1;2.6;;;;;;;10.19;73.70898;967.0927;;;;
2019/09/18 05:14:08;;;;;;;7.9;2.7;;;;;;;10.08;73.36719;967.1085;;;;
2019/09/18 05:16:33;;;;;;;9.6;2.8;;;;;;;10.12;73.57031;967.1476;;;;
2019/09/18 05:19:22;;;;;;;8.9;2.8;;;;;;;10.15;72.67773;967.1029;;;;
2019/09/18 05:21:24;;;;;;;10.6;2.9;;;;;;;10.09;74.14063;967.0798;;;;
2019/09/18 05:23:49;;;;;;;7.7;2.9;;;;;;;10.17;72.42969;967.0842;;;;
2019/09/18 05:26:14;;;;;;;6.7;2.9;;;;;;;10.2;72.96191;967.1401;;;;
2019/09/18 05:28:39;;;;;;;9.3;3.1;;;;;;;10.19;72.35254;967.1179;;;;
2019/09/18 05:31:04;;;;;;;8.7;3.2;;;;;;;10.27;72.36621;967.0924;;;;
2019/09/18 05:33:29;;;;;;;10.6;3.5;;;;;;;10.31;71.66992;967.0839;;;;
2019/09/18 05:35:54;;;;;;;9.2;3;;;;;;;10.39;71.24609;967.0784;;;;
2019/09/18 05:38:19;;;;;;;10.5;3;;;;;;;10.3;71.85254;967.0552;;;;
2019/09/18 05:40:44;;;;;;;8.6;3;;;;;;;10.29;72.64453;967.0753;;;;
2019/09/18 05:43:09;;;;;;;9.1;3.3;;;;;;;10.27;71.81348;967.1014;;;;
2019/09/18 05:45:35;;;;;;;12.3;3.3;;;;;;;10.06;73.93945;967.1325;;;;
2019/09/18 05:48:00;;;;;;;9.1;3.1;;;;;;;10.11;72.18945;967.1747;;;;
2019/09/18 05:50:25;;;;;;;11.2;3;;;;;;;10.19;71.38672;967.2125;;;;
2019/09/18 05:52:50;;;;;;;9.7;2.8;;;;;;;10.41;70.60547;967.2279;;;;
2019/09/18 05:55:15;;;;;;;9.7;3.3;;;;;;;10.37;70.97754;967.2479;;;;
2019/09/18 05:57:40;;;;;;;12.1;3.4;;;;;;;10.32;72.04102;967.2393;;;;
2019/09/18 06:00:05;;;;;;;8.2;3;;;;;;;10.44;70.7832;967.226;;;;
2019/09/18 06:02:30;;;;;;;8;3.3;;;;;;;10.42;71.71094;967.2496;;;;
2019/09/18 06:04:55;;;;;;;8.5;3.2;;;;;;;10.37;71.36035;967.3189;;;;
2019/09/18 06:07:20;;;;;;;8.8;3.1;;;;;;;10.39;70.6377;967.3212;;;;
2019/09/18 06:09:45;;;;;;;10;3;;;;;;;10.25;71.7168;967.3301;;;;
2019/09/18 06:12:11;;;;;;;10.6;3.3;;;;;;;10.21;71.67676;967.285;;;;
2019/09/18 06:14:36;;;;;;;10.7;3.3;;;;;;;10.35;71.6084;967.3197;;;;
2019/09/18 06:17:01;;;;;;;9.4;3;;;;;;;10.61;69.74121;967.3606;;;;
2019/09/18 06:19:26;;;;;;;11.4;3.4;;;;;;;10.42;69.87012;967.3334;;;;
2019/09/18 06:21:51;;;;;;;13.7;3.6;;;;;;;10.24;71.06152;967.3577;;;;
2019/09/18 06:24:17;;;;;;;8.3;3.2;;;;;;;10.47;70.28027;967.2925;;;;
2019/09/18 06:26:42;;;;;;;10.1;3.3;;;;;;;10.49;69.19141;967.3895;;;;
2019/09/18 06:29:07;;;;;;;11.7;3.2;;;;;;;10.49;68.12109;967.3976;;;;
2019/09/18 06:31:32;;;;;;;10.9;3.1;;;;;;;10.52;68.64453;967.4313;;;;
2019/09/18 06:33:57;;;;;;;15.4;3.3;;;;;;;10.66;68.52832;967.4348;;;;
2019/09/18 06:36:23;;;;;;;13;3.4;;;;;;;10.61;68.61328;967.4698;;;;
2019/09/18 06:38:48;;;;;;;13.4;3.2;;;;;;;10.54;68.71484;967.5011;;;;
2019/09/18 06:41:13;;;;;;;9;2.8;;;;;;;10.62;69.13184;967.4738;;;;
2019/09/18 06:43:39;;;;;;;10.8;3;;;;;;;10.59;68.66602;967.5286;;;;
2019/09/18 06:46:04;;;;;;;11.7;2.8;;;;;;;10.83;66.48145;967.5829;;;;
2019/09/18 06:48:29;;;;;;;6.6;2.3;;;;;;;10.88;66.19043;967.5803;;;;
2019/09/18 06:50:54;;;;;;;12.8;2.8;;;;;;;10.73;67.96387;967.5577;;;;
2019/09/18 06:53:19;;;;;;;7.9;2.7;;;;;;;10.89;67.19434;967.5645;;;;
2019/09/18 06:55:44;;;;;;;9;2.5;;;;;;;11.03;67.05371;967.6036;;;;
2019/09/18 06:58:10;;;;;;;10.1;4.4;;;;;;;11.19;65.45313;967.5678;;;;
2019/09/18 07:00:35;;;;;;;9.4;3.7;;;;;;;11.25;66.65039;967.5891;;;;
2019/09/18 07:03:00;;;;;;;10.5;2.8;;;;;;;11.23;66.38086;967.5974;;;;
2019/09/18 07:05:25;;;;;;;8.8;2.7;;;;;;;11.24;67.20215;967.5559;;;;
2019/09/18 07:07:50;;;;;;;10.9;2.8;;;;;;;11.18;67.41309;967.5706;;;;
2019/09/18 07:10:15;;;;;;;7.5;2.4;;;;;;;11.24;66.0498;967.5675;;;;
2019/09/18 07:12:41;;;;;;;8.6;2.7;;;;;;;11.17;66.28027;967.6266;;;;
2019/09/18 07:15:06;;;;;;;12.1;3.2;;;;;;;11.1;65.82129;967.6704;;;;
2019/09/18 07:17:31;;;;;;;10;2.9;;;;;;;11.12;66.13574;967.7067;;;;
2019/09/18 07:19:57;;;;;;;12.2;3;;;;;;;10.98;66.87402;967.6797;;;;
2019/09/18 07:22:22;;;;;;;12.1;2.7;;;;;;;11.06;67.16113;967.7023;;;;
2019/09/18 07:24:47;;;;;;;9.8;3;;;;;;;11.3;66.13867;967.7609;;;;
2019/09/18 07:27:13;;;;;;;8.8;2.4;;;;;;;11.47;65.94629;967.7326;;;;
2019/09/18 07:29:38;;;;;;;12.4;2.5;;;;;;;11.35;66.75781;967.7617;;;;
2019/09/18 07:32:03;;;;;;;10.3;2.9;;;;;;;11.41;65.21094;967.7031;;;;
2019/09/18 07:34:28;;;;;;;6.7;2.2;;;;;;;11.33;64.75879;967.7756;;;;
2019/09/18 07:36:53;;;;;;;9;2.5;;;;;;;11.5;65.35059;967.7889;;;;
2019/09/18 07:39:18;;;;;;;12;2.6;;;;;;;11.7;64.85156;967.8111;;;;
2019/09/18 07:41:43;;;;;;;10.7;2.4;;;;;;;11.69;64.51367;967.8211;;;;
2019/09/18 07:44:09;;;;;;;10.4;2.2;;;;;;;11.69;64.61816;967.8546;;;;
2019/09/18 07:46:34;;;;;;;10.8;2.3;;;;;;;11.79;62.47461;967.8289;;;;
2019/09/18 07:48:59;;;;;;;9.2;2.4;;;;;;;11.89;63.28516;967.7969;;;;
2019/09/18 07:51:25;;;;;;;9.4;2.1;;;;;;;11.79;64.64355;967.7791;;;;
2019/09/18 07:53:50;;;;;;;9.2;2.4;;;;;;;11.83;64.64063;967.8055;;;;
2019/09/18 07:56:15;;;;;;;8.8;2.4;;;;;;;11.63;63.5127;967.8201;;;;
2019/09/18 07:58:40;;;;;;;7.8;2.2;;;;;;;11.82;64.49902;967.8298;;;;
2019/09/18 08:01:05;;;;;;;9.4;2.2;;;;;;;11.86;64.68945;967.8678;;;;
2019/09/18 08:03:31;;;;;;;10.2;2.4;;;;;;;11.9;63.24023;967.8467;;;;
2019/09/18 08:05:56;;;;;;;11.1;2.4;;;;;;;11.93;62.66699;967.8541;;;;
2019/09/18 08:08:21;;;;;;;8.9;2.4;;;;;;;11.98;60.97754;967.8784;;;;
2019/09/18 08:10:47;;;;;;;7.5;2.1;;;;;;;11.98;61.42871;967.823;;;;
2019/09/18 08:13:12;;;;;;;7;2.2;;;;;;;12.06;61.27734;967.7916;;;;
2019/09/18 08:15:37;;;;;;;8.4;2.2;;;;;;;12.02;60.05957;967.788;;;;
2019/09/18 08:18:08;;;;;;;8.5;2.3;;;;;;;12.03;60.15332;967.7868;;;;
2019/09/18 08:23:30;;;;;;;10.8;2.2;;;;;;;12.32;61.2793;967.8187;;;;
2019/09/18 08:25:20;;;;;;;9.9;2.2;;;;;;;12.33;59.57129;967.8323;;;;
2019/09/18 08:27:43;;;;;;;7.3;2.1;;;;;;;12.22;59.85742;967.8147;;;;
2019/09/18 08:30:08;;;;;;;7.1;2;;;;;;;12.41;58.40332;967.814;;;;
2019/09/18 08:32:33;;;;;;;6.2;1.7;;;;;;;12.48;57.29102;967.7935;;;;
2019/09/18 08:34:58;;;;;;;8;1.9;;;;;;;12.46;57.47363;967.8126;;;;
2019/09/18 08:37:23;;;;;;;6.2;1.8;;;;;;;12.56;58.09863;967.8051;;;;
2019/09/18 08:39:48;;;;;;;7.4;2.1;;;;;;;12.48;57.3252;967.7494;;;;
2019/09/18 08:42:13;;;;;;;6.3;2.3;;;;;;;12.67;57.32813;967.7466;;;;
2019/09/18 08:44:39;;;;;;;6.7;1.9;;;;;;;12.7;56.92676;967.7473;;;;
2019/09/18 08:47:04;;;;;;;6.6;2.4;;;;;;;12.76;56.49609;967.7159;;;;
2019/09/18 08:49:29;;;;;;;7.5;2;;;;;;;12.78;57.50391;967.7813;;;;
2019/09/18 08:51:54;;;;;;;6.7;1.9;;;;;;;12.92;56.56152;967.7245;;;;
2019/09/18 08:54:19;;;;;;;6.5;1.9;;;;;;;12.88;58.35059;967.731;;;;
2019/09/18 08:56:44;;;;;;;6.1;1.8;;;;;;;12.99;57.39355;967.7125;;;;
2019/09/18 08:59:09;;;;;;;6.8;2;;;;;;;12.85;55.84668;967.7073;;;;
2019/09/18 09:01:34;;;;;;;8;2.2;;;;;;;13.01;57.8125;967.7372;;;;
2019/09/18 09:03:59;;;;;;;5.9;1.9;;;;;;;12.98;56.28027;967.7202;;;;
2019/09/18 09:06:24;;;;;;;7.4;1.9;;;;;;;12.89;57.00977;967.7942;;;;
2019/09/18 09:09:00;;;;;;;9.1;2.5;;;;;;;12.95;57.64258;967.7957;;;;
2019/09/18 09:11:14;;;;;;;7.7;2;;;;;;;12.99;57.42773;967.7493;;;;
2019/09/18 09:13:40;;;;;;;5.9;1.8;;;;;;;13.03;57.37598;967.7354;;;;
2019/09/18 09:16:05;;;;;;;7.6;2;;;;;;;12.87;55.88574;967.7972;;;;
2019/09/18 09:18:30;;;;;;;7.5;2;;;;;;;12.9;57.87988;967.7783;;;;
2019/09/18 09:20:55;;;;;;;8.2;2;;;;;;;12.82;58.2041;967.7191;;;;
2019/09/18 09:23:21;;;;;;;8.5;2.1;;;;;;;13.03;56.78516;967.692;;;;
2019/09/18 09:25:46;;;;;;;7;2.1;;;;;;;13.15;55.9209;967.6906;;;;
2019/09/18 09:28:11;;;;;;;7.3;2;;;;;;;13.27;54.99902;967.6705;;;;
2019/09/18 09:30:36;;;;;;;8.1;2.1;;;;;;;13.12;56.125;967.6392;;;;
2019/09/18 09:33:01;;;;;;;7.4;2.1;;;;;;;13.08;57.42871;967.6122;;;;
2019/09/18 09:35:26;;;;;;;8.8;2.2;;;;;;;13.03;57.04004;967.6208;;;;
2019/09/18 09:37:52;;;;;;;7.4;2.3;;;;;;;13.23;57.66797;967.6998;;;;
2019/09/18 09:40:17;;;;;;;8.4;2;;;;;;;13.24;59.08301;967.6893;;;;
2019/09/18 09:42:43;;;;;;;12.5;2.7;;;;;;;13.28;57.09473;967.6984;;;;
2019/09/18 09:45:08;;;;;;;10.5;2.3;;;;;;;13.35;56.90723;967.6928;;;;
2019/09/18 09:47:33;;;;;;;7.5;2.2;;;;;;;13.2;55.43945;967.6958;;;;
2019/09/18 09:49:58;;;;;;;9.5;1.9;;;;;;;13.43;55.78223;967.666;;;;
2019/09/18 09:52:23;;;;;;;8.9;2.4;;;;;;;13.44;55.60938;967.5999;;;;
2019/09/18 09:54:48;;;;;;;9.1;2.3;;;;;;;13.48;56.87891;967.6635;;;;
2019/09/18 09:57:13;;;;;;;9.6;2.1;;;;;;;13.57;57.11133;967.6721;;;;
2019/09/18 09:59:39;;;;;;;10.1;2.4;;;;;;;13.53;54.92676;967.6058;;;;
2019/09/18 10:02:04;;;;;;;8.2;2;;;;;;;13.52;55.72559;967.6326;;;;
2019/09/18 10:04:29;;;;;;;8.1;1.9;;;;;;;13.85;53.81836;967.6089;;;;
2019/09/18 10:06:54;;;;;;;8.6;2.2;;;;;;;13.88;54.50586;967.6682;;;;
2019/09/18 10:09:20;;;;;;;6.7;2.1;;;;;;;13.91;55.83203;967.6344;;;;
2019/09/18 10:11:45;;;;;;;9.1;2.3;;;;;;;13.84;54.31738;967.6766;;;;
2019/09/18 10:15:02;;;;;;;7.3;2.4;;;;;;;13.72;54.81152;967.6128;;;;
2019/09/18 10:17:28;;;;;;;7.1;2.1;;;;;;;13.83;54.10645;967.6036;;;;
2019/09/18 10:19:53;;;;;;;5.3;1.7;;;;;;;13.88;54.7959;967.6166;;;;
2019/09/18 10:22:18;;;;;;;8.5;2.3;;;;;;;13.83;54.7666;967.574;;;;
2019/09/18 10:27:08;;;;;;;8.2;2.1;;;;;;;14.08;54.91504;967.5614;;;;
2019/09/18 10:29:33;;;;;;;6.4;2;;;;;;;14.14;54.63281;967.4822;;;;
2019/09/18 10:31:58;;;;;;;7.4;2.1;;;;;;;14.11;54.10742;967.5341;;;;
2019/09/18 10:34:23;;;;;;;6.1;2.2;;;;;;;14.14;53.4834;967.5281;;;;
2019/09/18 10:36:48;;;;;;;7.6;2.5;;;;;;;14.21;52.00586;967.4369;;;;
2019/09/18 10:39:13;;;;;;;4.8;1.7;;;;;;;14.14;52.18457;967.392;;;;
2019/09/18 10:41:39;;;;;;;6.2;1.9;;;;;;;14.25;52.70801;967.3317;;;;
2019/09/18 10:44:04;;;;;;;6.2;1.8;;;;;;;14.37;52.71094;967.3699;;;;
2019/09/18 10:46:29;;;;;;;8.3;2.2;;;;;;;14.36;52.23438;967.3674;;;;
2019/09/18 10:48:54;;;;;;;7.2;2.1;;;;;;;14.34;53.56641;967.3881;;;;
2019/09/18 10:51:20;;;;;;;5.2;1.8;;;;;;;14.36;53.2793;967.3312;;;;
2019/09/18 10:53:45;;;;;;;8.2;2;;;;;;;14.38;51.8877;967.3215;;;;
2019/09/18 10:56:11;;;;;;;7.4;2.2;;;;;;;14.45;52.02246;967.307;;;;
2019/09/18 10:58:36;;;;;;;5.6;1.9;;;;;;;14.66;51.23535;967.3356;;;;
2019/09/18 11:01:01;;;;;;;10.1;2.3;;;;;;;14.67;50.69043;967.2709;;;;
2019/09/18 11:03:26;;;;;;;7.3;2;;;;;;;14.56;50.83984;967.3019;;;;
2019/09/18 11:05:51;;;;;;;6.5;2.1;;;;;;;14.56;51.08496;967.338;;;;
2019/09/18 11:08:16;;;;;;;8.4;1.9;;;;;;;14.67;52.51465;967.2955;;;;
2019/09/18 11:10:41;;;;;;;7.4;2.1;;;;;;;14.67;52.30566;967.3086;;;;
2019/09/18 11:13:07;;;;;;;9.1;2.5;;;;;;;14.63;52.23047;967.2281;;;;
2019/09/18 11:15:32;;;;;;;10.4;2.4;;;;;;;14.68;52.53906;967.2119;;;;
2019/09/18 11:17:57;;;;;;;6.7;2;;;;;;;14.73;50.57031;967.1717;;;;
2019/09/18 11:20:22;;;;;;;9.7;2.4;;;;;;;14.82;51.0332;967.178;;;;
2019/09/18 11:22:47;;;;;;;6.4;2.1;;;;;;;14.95;50.74609;967.1641;;;;
2019/09/18 11:25:16;;;;;;;8.3;2.4;;;;;;;14.89;50.54102;967.0992;;;;
2019/09/18 11:27:41;;;;;;;6.9;2.5;;;;;;;14.81;51.01953;967.0795;;;;
2019/09/18 11:30:06;;;;;;;7.5;2.4;;;;;;;14.67;51.23633;967.0559;;;;
2019/09/18 11:32:31;;;;;;;12.4;2.5;;;;;;;14.94;51.19824;967.0812;;;;
2019/09/18 11:34:56;;;;;;;7.1;2.4;;;;;;;14.84;49.63965;967.0717;;;;
2019/09/18 11:37:21;;;;;;;5.4;1.9;;;;;;;14.69;50.71582;966.9841;;;;
2019/09/18 11:39:46;;;;;;;8;2;;;;;;;14.9;51.07813;967.0381;;;;
2019/09/18 11:42:12;;;;;;;9;2.4;;;;;;;14.78;51.54004;967.0502;;;;
2019/09/18 11:44:37;;;;;;;7.2;2.3;;;;;;;14.87;49.83008;967.0392;;;;
2019/09/18 11:47:02;;;;;;;9;2.4;;;;;;;14.84;50.4541;966.9855;;;;
2019/09/18 11:49:27;;;;;;;5.7;1.9;;;;;;;14.94;51.32617;966.949;;;;
2019/09/18 11:51:52;;;;;;;8.8;2.3;;;;;;;14.88;51.38867;966.8834;;;;
2019/09/18 11:54:17;;;;;;;8.4;2.3;;;;;;;15.12;50.28906;966.8776;;;;
2019/09/18 11:56:42;;;;;;;6.6;2.1;;;;;;;15.09;49.77441;966.8608;;;;
2019/09/18 11:59:07;;;;;;;6.7;2;;;;;;;15.18;48.72461;966.8767;;;;
2019/09/18 12:01:32;;;;;;;6.7;1.9;;;;;;;15.27;48.95703;966.8639;;;;
2019/09/18 12:03:57;;;;;;;6.4;1.9;;;;;;;15.31;49.14746;966.8741;;;;
2019/09/18 12:06:23;;;;;;;7.3;2.3;;;;;;;15.42;47.89063;966.883;;;;
2019/09/18 12:08:48;;;;;;;9;2.2;;;;;;;15.49;47.30469;966.7859;;;;
2019/09/18 12:11:13;;;;;;;5.5;1.9;;;;;;;15.34;47.04395;966.863;;;;
2019/09/18 12:13:38;;;;;;;10.2;2.3;;;;;;;15.48;46.81445;966.8311;;;;
2019/09/18 12:16:03;;;;;;;7;2;;;;;;;15.4;47.5166;966.8063;;;;
2019/09/18 12:18:28;;;;;;;6.4;1.7;;;;;;;15.46;48.29102;966.8086;;;;
2019/09/18 12:20:53;;;;;;;6.8;2;;;;;;;15.35;48.15137;966.7574;;;;
2019/09/18 12:23:18;;;;;;;8.4;1.8;;;;;;;15.4;47.1084;966.7529;;;;
2019/09/18 12:25:44;;;;;;;8;2.3;;;;;;;15.52;44.95703;966.7222;;;;
2019/09/18 12:28:09;;;;;;;7.7;2.1;;;;;;;15.67;44.21484;966.6827;;;;
2019/09/18 12:30:34;;;;;;;11.6;2.2;;;;;;;15.65;44.27148;966.705;;;;
2019/09/18 12:33:00;;;;;;;5.7;1.9;;;;;;;15.6;44.70801;966.6707;;;;
2019/09/18 12:35:25;;;;;;;5.2;1.9;;;;;;;15.58;43.08789;966.7427;;;;
2019/09/18 12:37:50;;;;;;;7;2.1;;;;;;;15.63;42.82617;966.7302;;;;
2019/09/18 12:40:15;;;;;;;7.5;1.5;;;;;;;15.49;42.89355;966.7506;;;;
2019/09/18 12:42:41;;;;;;;5.7;1.9;;;;;;;15.61;42.95117;966.7438;;;;
2019/09/18 12:45:06;;;;;;;4.8;1.6;;;;;;;15.72;43.23047;966.7183;;;;
2019/09/18 12:47:31;;;;;;;6.6;1.9;;;;;;;15.64;43.93262;966.6877;;;;
2019/09/18 12:50:08;;;;;;;9.8;2;;;;;;;15.52;45.74805;966.6064;;;;
2019/09/18 12:52:21;;;;;;;6.3;1.6;;;;;;;15.63;44.53809;966.6316;;;;
2019/09/18 12:54:51;;;;;;;7.7;1.8;;;;;;;15.53;43.29297;966.642;;;;
2019/09/18 12:57:44;;;;;;;7.9;1.6;;;;;;;15.58;41.45898;966.5931;;;;
2019/09/18 12:59:38;;;;;;;5.6;1.5;;;;;;;15.76;44.93457;966.6216;;;;
2019/09/18 13:02:02;;;;;;;5.1;1.3;;;;;;;15.74;42.68555;966.6002;;;;
2019/09/18 13:04:27;;;;;;;4.9;1.5;;;;;;;15.95;42.60059;966.6319;;;;
2019/09/18 13:06:52;;;;;;;6.6;2.8;;;;;;;15.89;41.0332;966.5598;;;;
2019/09/18 13:09:17;;;;;;;9;2.1;;;;;;;15.94;43.06641;966.5406;;;;
2019/09/18 13:11:42;;;;;;;8.5;2.4;;;;;;;15.88;41.61523;966.5291;;;;
2019/09/18 13:14:07;;;;;;;5.9;1.7;;;;;;;15.79;43.22559;966.4938;;;;
2019/09/18 13:16:32;;;;;;;4.6;1.4;;;;;;;15.98;42.23047;966.4456;;;;
2019/09/18 13:18:58;;;;;;;6.1;1.6;;;;;;;16.06;42.7627;966.5377;;;;
2019/09/18 13:21:23;;;;;;;6.6;1.4;;;;;;;16.04;41.53711;966.5184;;;;
2019/09/18 13:23:48;;;;;;;4.9;1.5;;;;;;;16.12;41.77734;966.4877;;;;
2019/09/18 13:26:13;;;;;;;5;1.4;;;;;;;16.2;41.80957;966.4942;;;;
2019/09/18 13:28:38;;;;;;;9.4;1.6;;;;;;;16.1;41.8584;966.5009;;;;
2019/09/18 13:31:03;;;;;;;3.4;1.2;;;;;;;16.22;39.88672;966.4723;;;;
2019/09/18 13:33:28;;;;;;;7.6;1.4;;;;;;;16.27;40.78906;966.4247;;;;
2019/09/18 13:35:53;;;;;;;5.8;1.4;;;;;;;16.41;38.9707;966.4285;;;;
2019/09/18 13:38:18;;;;;;;4.5;1.2;;;;;;;16.28;40.39355;966.4554;;;;
2019/09/18 13:40:44;;;;;;;4.2;1.4;;;;;;;16.26;39.78613;966.5161;;;;
2019/09/18 13:43:09;;;;;;;5.5;1.6;;;;;;;16.26;40.12402;966.5079;;;;
2019/09/18 13:45:34;;;;;;;5.5;1.3;;;;;;;16.18;40.62988;966.5071;;;;
2019/09/18 13:47:59;;;;;;;6;1.4;;;;;;;16.23;41.63672;966.4903;;;;
2019/09/18 13:50:24;;;;;;;4.3;1.2;;;;;;;16.09;41.2041;966.4408;;;;
2019/09/18 13:52:49;;;;;;;5.3;1.4;;;;;;;16.23;40.7041;966.4155;;;;
2019/09/18 13:55:14;;;;;;;5.7;1.3;;;;;;;16.31;40.19824;966.3669;;;;
2019/09/18 13:57:39;;;;;;;6.2;1.3;;;;;;;16.3;39.38086;966.3756;;;;
2019/09/18 14:00:04;;;;;;;7;1.7;;;;;;;16.26;39.92578;966.3293;;;;
2019/09/18 14:02:30;;;;;;;5.4;1.4;;;;;;;16.14;39.84473;966.367;;;;
2019/09/18 14:04:55;;;;;;;7.1;2.1;;;;;;;16.18;39.87207;966.3799;;;;
2019/09/18 14:07:20;;;;;;;5.8;1.4;;;;;;;16.14;39.02832;966.3859;;;;
2019/09/18 14:09:45;;;;;;;6.6;1.3;;;;;;;16.18;38.92773;966.3947;;;;
2019/09/18 14:12:10;;;;;;;4;1.3;;;;;;;16.18;40.14063;966.4144;;;;
2019/09/18 14:14:35;;;;;;;7.3;1.4;;;;;;;16.22;39.60742;966.4558;;;;
2019/09/18 14:17:00;;;;;;;5.1;1.4;;;;;;;16.32;38.53125;966.4359;;;;
2019/09/18 14:19:26;;;;;;;4.2;1.2;;;;;;;16.24;39.71387;966.4059;;;;